createdAt,value
2022-12-15T00:02:35.537Z,13.18
2022-12-15T00:05:21.079Z,11.05
2022-12-15T00:08:07.894Z,12.55
2022-12-15T00:10:53.773Z,12.15
2022-12-15T00:13:39.252Z,11.98
2022-12-15T00:16:25.064Z,11.98
2022-12-15T00:19:10.343Z,11.85
2022-12-15T00:21:55.456Z,12.85
2022-12-15T00:24:42.080Z,11.95
2022-12-15T00:27:27.604Z,11.82
2022-12-15T00:30:12.927Z,11.98
2022-12-15T00:32:58.287Z,11.57
2022-12-15T00:35:43.648Z,11.30
2022-12-15T00:38:31.628Z,11.65
2022-12-15T00:41:00.942Z,11.50
2022-12-15T00:43:30.206Z,11.35
2022-12-15T00:46:16.372Z,11.98
2022-12-15T00:48:45.001Z,12.15
2022-12-15T00:51:12.695Z,11.57
2022-12-15T00:53:58.392Z,13.25
2022-12-15T00:56:45.515Z,13.63
2022-12-15T00:59:32.483Z,12.90
2022-12-15T01:02:18.050Z,11.77
2022-12-15T01:05:03.300Z,10.95
2022-12-15T01:07:49.871Z,12.70
2022-12-15T01:10:36.025Z,12.50
2022-12-15T01:13:23.551Z,11.10
2022-12-15T01:16:08.929Z,11.50
2022-12-15T01:18:54.082Z,11.65
2022-12-15T01:21:24.710Z,11.48
2022-12-15T01:23:53.127Z,10.55
2022-12-15T01:26:21.140Z,10.25
2022-12-15T01:28:50.274Z,11.25
2022-12-15T01:31:18.051Z,11.50
2022-12-15T01:33:45.830Z,10.65
2022-12-15T01:36:14.242Z,11.25
2022-12-15T01:38:42.692Z,10.93
2022-12-15T01:41:12.359Z,10.65
2022-12-15T01:43:41.629Z,11.00
2022-12-15T01:46:12.616Z,10.77
2022-12-15T01:48:44.010Z,10.43
2022-12-15T01:51:17.240Z,10.68
2022-12-15T01:53:52.282Z,10.07
2022-12-15T01:56:21.092Z,11.50
2022-12-15T01:58:50.943Z,11.65
2022-12-15T02:01:20.165Z,10.88
2022-12-15T02:03:49.251Z,11.30
2022-12-15T02:06:18.015Z,11.95
2022-12-15T02:08:48.431Z,10.93
2022-12-15T02:11:37.377Z,10.98
2022-12-15T02:14:07.511Z,10.60
2022-12-15T02:16:50.490Z,10.85
2022-12-15T02:19:42.820Z,10.13
2022-12-15T02:22:25.394Z,10.95
2022-12-15T02:25:11.396Z,11.48
2022-12-15T02:27:52.120Z,10.57
2022-12-15T02:30:32.596Z,11.35
2022-12-15T02:33:07.703Z,10.63
2022-12-15T02:35:47.380Z,10.45
2022-12-15T02:38:15.226Z,11.40
2022-12-15T02:40:43.054Z,10.80
2022-12-15T02:43:11.359Z,10.48
2022-12-15T02:45:52.751Z,10.45
2022-12-15T02:48:32.137Z,10.93
2022-12-15T02:51:14.313Z,10.52
2022-12-15T02:53:56.816Z,10.90
2022-12-15T02:56:33.533Z,10.52
2022-12-15T02:59:11.082Z,10.13
2022-12-15T03:04:13.820Z,9.43
2022-12-15T03:06:41.635Z,12.23
2022-12-15T03:09:09.469Z,11.30
2022-12-15T03:11:38.148Z,9.98
2022-12-15T03:14:05.930Z,10.82
2022-12-15T03:16:33.799Z,10.30
2022-12-15T03:19:02.963Z,10.15
2022-12-15T03:21:30.880Z,10.13
2022-12-15T03:23:58.641Z,10.60
2022-12-15T03:26:26.420Z,11.63
2022-12-15T03:28:54.132Z,10.77
2022-12-15T03:31:21.906Z,11.50
2022-12-15T03:33:49.745Z,10.10
2022-12-15T03:36:19.103Z,10.05
2022-12-15T03:38:46.841Z,11.75
2022-12-15T03:41:14.541Z,12.93
2022-12-15T03:43:42.315Z,11.68
2022-12-15T03:46:10.120Z,12.40
2022-12-15T03:48:38.084Z,12.77
2022-12-15T03:51:05.864Z,11.57
2022-12-15T03:53:35.055Z,11.35
2022-12-15T03:56:02.824Z,12.93
2022-12-15T03:58:30.587Z,12.23
2022-12-15T04:00:58.397Z,10.90
2022-12-15T04:03:26.272Z,10.35
2022-12-15T04:05:54.075Z,11.13
2022-12-15T04:08:26.662Z,10.48
2022-12-15T04:10:55.826Z,11.38
2022-12-15T04:13:23.550Z,10.02
2022-12-15T04:15:51.286Z,10.45
2022-12-15T04:18:19.151Z,10.10
2022-12-15T04:20:45.985Z,11.25
2022-12-15T04:23:18.116Z,13.15
2022-12-15T04:26:03.324Z,10.68
2022-12-15T04:28:50.011Z,11.02
2022-12-15T04:31:37.768Z,10.52
2022-12-15T04:34:26.595Z,10.20
2022-12-15T04:37:12.636Z,11.13
2022-12-15T04:40:00.279Z,10.23
2022-12-15T04:42:45.695Z,9.98
2022-12-15T04:45:34.084Z,10.77
2022-12-15T04:48:19.444Z,10.10
2022-12-15T04:51:04.878Z,10.38
2022-12-15T04:53:52.259Z,10.38
2022-12-15T04:56:37.534Z,11.93
2022-12-15T04:59:23.899Z,10.25
2022-12-15T05:02:10.389Z,10.75
2022-12-15T05:04:55.579Z,11.30
2022-12-15T05:07:43.200Z,10.77
2022-12-15T05:10:28.562Z,10.32
2022-12-15T05:13:13.997Z,11.23
2022-12-15T05:15:59.598Z,10.30
2022-12-15T05:18:46.017Z,10.43
2022-12-15T05:21:31.558Z,10.75
2022-12-15T05:24:17.089Z,10.27
2022-12-15T05:27:02.395Z,11.50
2022-12-15T05:29:47.807Z,10.23
2022-12-15T05:32:15.604Z,10.50
2022-12-15T05:34:44.697Z,11.43
2022-12-15T05:37:12.475Z,11.48
2022-12-15T05:39:40.222Z,11.40
2022-12-15T05:42:08.025Z,11.10
2022-12-15T05:44:35.825Z,11.95
2022-12-15T05:47:04.917Z,11.82
2022-12-15T05:49:33.351Z,11.27
2022-12-15T05:52:02.488Z,11.98
2022-12-15T05:54:30.287Z,10.85
2022-12-15T05:56:58.067Z,11.60
2022-12-15T05:59:25.899Z,10.63
2022-12-15T06:01:53.729Z,12.30
2022-12-15T06:04:24.071Z,13.45
2022-12-15T06:06:51.872Z,13.52
2022-12-15T06:09:20.971Z,12.00
2022-12-15T06:11:48.802Z,12.07
2022-12-15T06:14:16.584Z,11.50
2022-12-15T06:16:50.291Z,11.95
2022-12-15T06:19:19.792Z,11.80
2022-12-15T06:21:47.550Z,12.02
2022-12-15T06:24:15.334Z,12.52
2022-12-15T06:26:44.680Z,12.15
2022-12-15T06:29:14.377Z,11.38
2022-12-15T06:31:43.681Z,12.32
2022-12-15T06:34:14.012Z,11.40
2022-12-15T06:36:42.338Z,11.25
2022-12-15T06:39:12.783Z,10.80
2022-12-15T06:41:41.320Z,12.10
2022-12-15T06:44:14.467Z,13.05
2022-12-15T06:46:42.892Z,11.95
2022-12-15T06:49:10.772Z,12.60
2022-12-15T06:51:38.608Z,12.13
2022-12-15T06:54:06.478Z,13.85
2022-12-15T06:56:37.073Z,11.38
2022-12-15T06:59:06.773Z,13.02
2022-12-15T07:01:36.315Z,11.63
2022-12-15T07:04:05.758Z,13.27
2022-12-15T07:06:37.241Z,11.73
2022-12-15T07:09:07.181Z,10.40
2022-12-15T07:11:35.244Z,11.27
2022-12-15T07:14:03.106Z,11.68
2022-12-15T07:16:31.969Z,12.88
2022-12-15T07:19:01.068Z,11.43
2022-12-15T07:21:28.868Z,12.55
2022-12-15T07:23:57.528Z,12.77
2022-12-15T07:26:26.416Z,13.05
2022-12-15T07:28:54.608Z,12.38
2022-12-15T07:31:23.617Z,12.57
2022-12-15T07:33:54.372Z,12.48
2022-12-15T07:36:23.609Z,11.82
2022-12-15T07:38:52.125Z,12.82
2022-12-15T07:41:21.107Z,12.30
2022-12-15T07:43:48.954Z,11.95
2022-12-15T07:46:18.099Z,11.23
2022-12-15T07:48:50.204Z,11.70
2022-12-15T07:51:20.564Z,12.93
2022-12-15T07:53:50.994Z,11.93
2022-12-15T07:56:20.406Z,12.45
2022-12-15T07:58:48.451Z,11.82
2022-12-15T08:01:17.264Z,12.07
2022-12-15T08:03:45.886Z,11.40
2022-12-15T08:06:15.396Z,12.50
2022-12-15T08:08:45.166Z,12.43
2022-12-15T08:11:22.500Z,13.50
2022-12-15T08:16:39.426Z,14.23
2022-12-15T08:19:08.763Z,13.00
2022-12-15T08:21:36.480Z,14.98
2022-12-15T08:24:04.371Z,15.43
2022-12-15T08:26:33.489Z,14.13
2022-12-15T08:29:40.361Z,15.40
2022-12-15T08:31:52.511Z,17.98
2022-12-15T08:34:20.735Z,13.95
2022-12-15T08:36:48.455Z,16.00
2022-12-15T08:39:16.414Z,16.90
2022-12-15T08:41:45.752Z,16.27
2022-12-15T08:44:13.532Z,16.00
2022-12-15T08:46:41.310Z,19.17
2022-12-15T08:49:09.781Z,17.40
2022-12-15T08:51:37.651Z,18.63
2022-12-15T08:54:05.442Z,21.33
2022-12-15T08:56:33.226Z,20.60
2022-12-15T08:59:03.195Z,20.25
2022-12-15T09:01:33.119Z,17.55
2022-12-15T09:04:01.552Z,14.88
2022-12-15T09:06:31.465Z,15.73
2022-12-15T09:09:02.171Z,17.35
2022-12-15T09:11:30.920Z,19.58
2022-12-15T09:13:59.174Z,16.40
2022-12-15T09:16:28.725Z,16.25
2022-12-15T09:18:58.716Z,18.95
2022-12-15T09:21:28.988Z,17.77
2022-12-15T09:24:00.512Z,19.00
2022-12-15T09:26:30.601Z,16.40
2022-12-15T09:28:58.826Z,20.38
2022-12-15T09:31:30.813Z,20.33
2022-12-15T09:34:00.309Z,20.60
2022-12-15T09:36:30.308Z,19.48
2022-12-15T09:38:58.098Z,17.25
2022-12-15T09:41:28.265Z,16.52
2022-12-15T09:43:59.889Z,15.63
2022-12-15T09:46:41.142Z,16.42
2022-12-15T09:49:14.521Z,16.60
2022-12-15T09:51:49.272Z,14.90
2022-12-15T09:54:19.188Z,19.55
2022-12-15T09:56:54.196Z,16.50
2022-12-15T09:59:30.107Z,16.30
2022-12-15T10:02:17.973Z,16.70
2022-12-15T10:04:57.066Z,16.85
2022-12-15T10:07:31.086Z,15.40
2022-12-15T10:09:59.152Z,15.82
2022-12-15T10:12:34.223Z,18.25
2022-12-15T10:15:13.564Z,15.73
2022-12-15T10:17:50.285Z,17.45
2022-12-15T10:20:20.774Z,15.35
2022-12-15T10:22:50.475Z,15.27
2022-12-15T10:25:29.349Z,14.43
2022-12-15T10:28:18.935Z,16.10
2022-12-15T10:30:53.142Z,16.42
2022-12-15T10:33:25.017Z,15.02
2022-12-15T10:35:54.667Z,15.43
2022-12-15T10:38:31.687Z,15.73
2022-12-15T10:41:02.356Z,16.13
2022-12-15T10:43:34.473Z,15.77
2022-12-15T10:46:07.714Z,16.75
2022-12-15T10:48:37.681Z,15.45
2022-12-15T10:51:27.326Z,14.35
2022-12-15T10:54:04.534Z,17.30
2022-12-15T10:56:34.336Z,16.23
2022-12-15T10:59:04.598Z,17.95
2022-12-15T11:01:35.593Z,14.98
2022-12-15T11:04:05.381Z,14.30
2022-12-15T11:06:36.797Z,14.38
2022-12-15T11:09:27.826Z,14.30
2022-12-15T11:12:13.446Z,14.30
2022-12-15T11:14:45.624Z,13.52
2022-12-15T11:17:18.611Z,13.50
2022-12-15T11:22:47.652Z,14.00
2022-12-15T11:25:36.217Z,16.10
2022-12-15T11:28:15.518Z,14.02
2022-12-15T11:30:46.638Z,14.18
2022-12-15T11:33:14.517Z,14.10
2022-12-15T11:35:59.364Z,15.75
2022-12-15T11:38:33.696Z,15.02
2022-12-15T11:41:09.535Z,13.98
2022-12-15T11:43:58.783Z,14.07
2022-12-15T11:46:37.828Z,15.10
2022-12-15T11:49:25.067Z,13.93
2022-12-15T11:52:03.581Z,14.02
2022-12-15T11:54:39.706Z,14.40
2022-12-15T11:57:25.897Z,14.40
2022-12-15T12:00:02.887Z,15.70
2022-12-15T12:03:02.972Z,14.63
2022-12-15T12:05:41.898Z,14.38
2022-12-15T12:08:36.762Z,14.95
2022-12-15T12:11:12.768Z,14.85
2022-12-15T12:13:52.560Z,15.40
2022-12-15T12:16:33.016Z,15.80
2022-12-15T12:19:05.928Z,15.98
2022-12-15T12:21:37.959Z,14.90
2022-12-15T12:24:17.617Z,15.25
2022-12-15T12:26:48.725Z,15.82
2022-12-15T12:29:22.415Z,15.15
2022-12-15T12:32:05.170Z,16.00
2022-12-15T12:34:47.316Z,16.65
2022-12-15T12:37:25.045Z,18.33
2022-12-15T12:39:57.269Z,17.05
2022-12-15T12:42:31.985Z,17.02
2022-12-15T12:44:59.816Z,16.85
2022-12-15T12:47:30.774Z,17.15
2022-12-15T12:50:02.259Z,16.73
2022-12-15T12:52:32.937Z,19.27
2022-12-15T12:55:09.510Z,17.23
2022-12-15T12:57:42.093Z,20.13
2022-12-15T13:00:22.082Z,19.10
2022-12-15T13:03:10.194Z,18.55
2022-12-15T13:05:39.852Z,17.95
2022-12-15T13:08:28.984Z,17.98
2022-12-15T13:11:18.142Z,18.08
2022-12-15T13:13:51.255Z,18.35
2022-12-15T13:16:25.234Z,19.92
2022-12-15T13:18:58.384Z,19.55
2022-12-15T13:21:55.296Z,18.80
2022-12-15T13:24:33.992Z,18.98
2022-12-15T13:27:15.366Z,19.33
2022-12-15T13:30:02.162Z,19.20
2022-12-15T13:32:35.374Z,18.60
2022-12-15T13:35:22.588Z,19.50
2022-12-15T13:37:53.167Z,18.60
2022-12-15T13:40:51.802Z,18.55
2022-12-15T13:43:41.259Z,19.20
2022-12-15T13:46:17.510Z,19.08
2022-12-15T13:48:49.281Z,18.45
2022-12-15T13:51:30.104Z,18.75
2022-12-15T13:54:03.012Z,18.45
2022-12-15T13:56:51.189Z,19.00
2022-12-15T13:59:39.252Z,18.10
2022-12-15T14:02:24.741Z,18.83
2022-12-15T14:05:15.206Z,19.00
2022-12-15T14:07:52.618Z,19.88
2022-12-15T14:10:24.901Z,19.52
2022-12-15T14:12:54.210Z,18.83
2022-12-15T14:15:28.189Z,20.50
2022-12-15T14:17:59.512Z,19.80
2022-12-15T14:22:55.641Z,19.98
2022-12-15T14:25:25.920Z,20.83
2022-12-15T14:27:53.670Z,20.95
2022-12-15T14:30:26.606Z,19.75
2022-12-15T14:32:58.781Z,21.92
2022-12-15T14:35:31.409Z,20.85
2022-12-15T14:38:02.016Z,20.58
2022-12-15T14:40:30.857Z,21.15
2022-12-15T14:42:59.031Z,22.20
2022-12-15T14:45:29.467Z,21.02
2022-12-15T14:50:51.290Z,20.95
2022-12-15T14:53:22.493Z,21.42
2022-12-15T14:55:51.587Z,22.60
2022-12-15T14:58:33.743Z,22.17
2022-12-15T15:01:03.317Z,21.33
2022-12-15T15:03:04.702Z,14.48
2022-12-15T15:03:38.977Z,22.02
2022-12-15T15:06:18.564Z,22.15
2022-12-15T15:08:48.924Z,21.63
2022-12-15T15:11:29.296Z,23.52
2022-12-15T15:13:59.219Z,22.38
2022-12-15T15:16:27.503Z,22.83
2022-12-15T15:18:58.102Z,23.17
2022-12-15T15:21:28.537Z,23.10
2022-12-15T15:24:01.479Z,23.33
2022-12-15T15:26:30.924Z,23.23
2022-12-15T15:28:59.511Z,23.27
2022-12-15T15:31:36.678Z,24.05
2022-12-15T15:34:09.879Z,23.88
2022-12-15T15:36:39.905Z,23.08
2022-12-15T15:39:15.154Z,26.35
2022-12-15T15:41:43.012Z,26.50
2022-12-15T15:44:13.859Z,25.35
2022-12-15T15:46:47.687Z,27.75
2022-12-15T15:49:19.039Z,26.45
2022-12-15T15:54:17.475Z,23.83
2022-12-15T15:56:45.295Z,24.50
2022-12-15T15:59:16.298Z,23.90
2022-12-15T16:01:44.277Z,23.80
2022-12-15T16:04:12.241Z,28.10
2022-12-15T16:06:47.048Z,26.17
2022-12-15T16:09:16.786Z,26.45
2022-12-15T16:11:45.672Z,27.48
2022-12-15T16:14:14.699Z,27.48
2022-12-15T16:16:42.801Z,33.03
2022-12-15T16:19:11.984Z,29.58
2022-12-15T16:21:41.863Z,28.20
2022-12-15T16:24:14.563Z,26.45
2022-12-15T16:26:47.210Z,26.70
2022-12-15T16:29:17.045Z,26.30
2022-12-15T16:31:45.827Z,25.67
2022-12-15T16:34:14.091Z,26.40
2022-12-15T16:36:43.701Z,25.83
2022-12-15T16:39:25.321Z,25.23
2022-12-15T16:41:54.693Z,26.20
2022-12-15T16:44:23.086Z,25.65
2022-12-15T16:46:51.331Z,26.30
2022-12-15T16:49:19.176Z,25.67
2022-12-15T16:51:50.338Z,26.52
2022-12-15T16:54:20.970Z,26.20
2022-12-15T16:56:48.887Z,25.48
2022-12-15T16:59:34.690Z,25.92
2022-12-15T17:02:17.804Z,26.67
2022-12-15T17:04:45.666Z,25.60
2022-12-15T17:07:20.114Z,26.70
2022-12-15T17:09:49.486Z,25.67
2022-12-15T17:12:18.689Z,28.60
2022-12-15T17:14:46.574Z,28.33
2022-12-15T17:17:15.810Z,27.92
2022-12-15T17:19:57.772Z,30.92
2022-12-15T17:22:33.366Z,29.13
2022-12-15T17:25:01.523Z,28.98
2022-12-15T17:27:30.643Z,26.17
2022-12-15T17:30:00.515Z,27.88
2022-12-15T17:32:28.342Z,26.60
2022-12-15T17:34:56.066Z,28.80
2022-12-15T17:37:26.160Z,26.20
2022-12-15T17:39:58.359Z,26.67
2022-12-15T17:42:26.179Z,27.90
2022-12-15T17:44:54.017Z,31.83
2022-12-15T17:47:24.189Z,30.77
2022-12-15T17:49:52.023Z,32.40
2022-12-15T17:52:29.904Z,32.22
2022-12-15T17:54:59.010Z,27.85
2022-12-15T17:57:26.963Z,30.00
2022-12-15T17:59:54.976Z,28.48
2022-12-15T18:02:22.803Z,27.48
2022-12-15T18:04:50.686Z,26.48
2022-12-15T18:07:20.349Z,29.80
2022-12-15T18:09:49.404Z,27.52
2022-12-15T18:12:23.312Z,29.48
2022-12-15T18:14:51.165Z,28.65
2022-12-15T18:17:18.983Z,26.25
2022-12-15T18:19:46.769Z,26.48
2022-12-15T18:22:18.116Z,25.08
2022-12-15T18:24:46.164Z,24.85
2022-12-15T18:27:23.652Z,27.25
2022-12-15T18:29:51.759Z,26.38
2022-12-15T18:32:21.400Z,26.40
2022-12-15T18:34:49.337Z,24.90
2022-12-15T18:37:18.480Z,25.60
2022-12-15T18:39:46.679Z,25.55
2022-12-15T18:42:16.093Z,28.20
2022-12-15T18:44:49.066Z,27.45
2022-12-15T18:47:18.579Z,29.80
2022-12-15T18:49:46.743Z,27.02
2022-12-15T18:52:18.282Z,26.45
2022-12-15T18:54:47.617Z,25.48
2022-12-15T18:57:27.950Z,26.40
2022-12-15T18:59:59.845Z,26.20
2022-12-15T19:02:28.399Z,27.60
2022-12-15T19:04:56.305Z,24.58
2022-12-15T19:07:24.133Z,24.52
2022-12-15T19:09:52.040Z,24.52
2022-12-15T19:12:19.892Z,26.98
2022-12-15T19:14:49.290Z,30.75
2022-12-15T19:17:37.397Z,25.67
2022-12-15T19:20:25.231Z,25.42
2022-12-15T19:22:53.646Z,25.77
2022-12-15T19:25:26.256Z,25.40
2022-12-15T19:27:59.137Z,26.15
2022-12-15T19:30:28.762Z,25.50
2022-12-15T19:32:58.264Z,25.63
2022-12-15T19:35:27.262Z,26.27
2022-12-15T19:37:58.009Z,25.60
2022-12-15T19:40:29.340Z,24.35
2022-12-15T19:42:58.253Z,26.02
2022-12-15T19:45:28.510Z,25.67
2022-12-15T19:47:58.009Z,26.10
2022-12-15T19:50:28.609Z,25.73
2022-12-15T19:52:59.008Z,25.63
2022-12-15T19:55:29.814Z,26.90
2022-12-15T19:57:57.573Z,26.23
2022-12-15T20:00:26.913Z,25.88
2022-12-15T20:02:57.017Z,25.73
2022-12-15T20:05:26.067Z,25.50
2022-12-15T20:07:54.878Z,24.05
2022-12-15T20:10:31.400Z,25.00
2022-12-15T20:13:01.077Z,26.90
2022-12-15T20:15:29.156Z,25.50
2022-12-15T20:17:58.287Z,28.20
2022-12-15T20:20:28.935Z,26.27
2022-12-15T20:22:59.799Z,24.25
2022-12-15T20:25:30.705Z,27.27
2022-12-15T20:28:00.221Z,26.70
2022-12-15T20:30:32.430Z,22.48
2022-12-15T20:33:02.132Z,25.38
2022-12-15T20:35:32.958Z,26.30
2022-12-15T20:38:01.502Z,27.35
2022-12-15T20:40:31.252Z,26.15
2022-12-15T20:42:58.978Z,26.10
2022-12-15T20:45:28.102Z,28.48
2022-12-15T20:47:57.063Z,26.17
2022-12-15T20:50:29.411Z,27.48
2022-12-15T20:52:57.333Z,25.90
2022-12-15T20:55:25.113Z,26.60
2022-12-15T20:57:52.927Z,25.60
2022-12-15T21:00:21.860Z,27.48
2022-12-15T21:02:52.053Z,27.25
2022-12-15T21:05:25.371Z,25.13
2022-12-15T21:07:55.130Z,24.05
2022-12-15T21:10:23.031Z,25.55
2022-12-15T21:12:51.724Z,25.65
2022-12-15T21:15:21.902Z,25.33
2022-12-15T21:17:57.276Z,25.90
2022-12-15T21:20:39.709Z,25.80
2022-12-15T21:23:21.267Z,23.48
2022-12-15T21:25:50.927Z,26.23
2022-12-15T21:28:19.727Z,27.42
2022-12-15T21:30:48.035Z,25.88
2022-12-15T21:33:16.042Z,25.83
2022-12-15T21:35:46.351Z,25.80
2022-12-15T21:38:28.319Z,26.23
2022-12-15T21:40:59.801Z,25.05
2022-12-15T21:45:56.255Z,23.92
2022-12-15T21:48:41.514Z,28.08
2022-12-15T21:51:15.032Z,25.48
2022-12-15T21:53:46.433Z,24.55
2022-12-15T21:58:45.957Z,23.30
2022-12-15T22:01:15.555Z,25.05
2022-12-15T22:03:45.856Z,24.55
2022-12-15T22:06:19.319Z,26.45
2022-12-15T22:08:48.874Z,25.33
2022-12-15T22:11:21.768Z,25.48
2022-12-15T22:13:52.177Z,27.70
2022-12-15T22:16:20.560Z,24.65
2022-12-15T22:18:51.146Z,26.05
2022-12-15T22:21:19.812Z,28.50
2022-12-15T22:23:48.967Z,27.13
2022-12-15T22:26:22.661Z,27.05
2022-12-15T22:28:51.050Z,27.52
2022-12-15T22:31:19.598Z,27.52
2022-12-15T22:33:47.384Z,26.88
2022-12-15T22:36:15.139Z,26.27
2022-12-15T22:38:44.950Z,26.98
2022-12-15T22:41:20.342Z,26.58
2022-12-15T22:43:51.810Z,26.10
2022-12-15T22:46:22.285Z,26.05
2022-12-15T22:48:52.169Z,26.35
2022-12-15T22:51:20.842Z,27.35
2022-12-15T22:53:48.578Z,25.90
2022-12-15T22:56:25.624Z,27.73
2022-12-15T22:58:57.776Z,27.35
2022-12-15T23:01:26.764Z,25.98
2022-12-15T23:03:55.643Z,25.15
2022-12-15T23:06:24.095Z,27.38
2022-12-15T23:08:55.883Z,27.70
2022-12-15T23:11:41.275Z,26.50
2022-12-15T23:14:11.837Z,26.15
2022-12-15T23:16:39.580Z,27.15
2022-12-15T23:19:08.629Z,27.02
2022-12-15T23:21:37.871Z,27.73
2022-12-15T23:24:05.861Z,27.88
2022-12-15T23:26:34.953Z,27.73
2022-12-15T23:29:02.696Z,28.45
2022-12-15T23:31:30.605Z,26.17
2022-12-15T23:33:58.390Z,26.45
2022-12-15T23:36:26.211Z,25.88
2022-12-15T23:38:55.130Z,26.55
2022-12-15T23:41:22.922Z,27.88
2022-12-15T23:43:52.020Z,26.75
2022-12-15T23:46:19.875Z,26.83
2022-12-15T23:48:47.845Z,26.80
2022-12-15T23:51:17.651Z,26.95
2022-12-15T23:53:48.694Z,29.73
2022-12-15T23:56:18.410Z,26.58
2022-12-15T23:58:48.972Z,26.83
